Time;durP1;ratioP1;P1;durP2;ratioP2;P2;SDS_P1;SDS_P2;PMS_P1;PMS_P2;Temp;Humidity;BMP_temperature;BMP_pressure;BME280_temperature;BME280_humidity;BME280_pressure;Samples;Min_cycle;Max_cycle;Signal;HPM_P1;HPM_P2
2022/04/21 00:00:53;;;;;;;1.20;1.20;;;19.30;63.00;;;;;;5010462;28;43789;-71
2022/04/21 00:03:21;;;;;;;1.30;1.30;;;19.20;62.90;;;;;;5028376;28;43954;-72
2022/04/21 00:05:49;;;;;;;1.10;1.10;;;19.20;63.10;;;;;;5028253;28;44060;-72
2022/04/21 00:08:20;;;;;;;1.20;1.20;;;19.10;63.30;;;;;;5027852;28;43823;-72
2022/04/21 00:10:48;;;;;;;1.27;1.27;;;19.10;63.50;;;;;;5028386;28;44004;-71
2022/04/21 00:13:15;;;;;;;1.20;1.20;;;19.00;63.60;;;;;;5028724;28;44277;-71
2022/04/21 00:15:45;;;;;;;1.00;1.00;;;18.90;63.60;;;;;;5027554;28;44058;-71
2022/04/21 00:18:13;;;;;;;1.10;1.10;;;18.90;63.80;;;;;;5026948;28;43470;-72
2022/04/21 00:20:41;;;;;;;1.13;1.13;;;18.90;63.90;;;;;;5028095;28;43938;-72
2022/04/21 00:23:26;;;;;;;1.10;1.10;;;18.90;64.00;;;;;;5028077;28;43767;-73
2022/04/21 00:25:54;;;;;;;1.20;1.20;;;18.90;64.40;;;;;;5027121;28;43933;-71
2022/04/21 00:28:22;;;;;;;1.30;1.30;;;19.10;64.30;;;;;;5021312;28;44053;-72
2022/04/21 00:30:51;;;;;;;1.00;1.00;;;19.20;63.80;;;;;;5027853;28;44037;-72
2022/04/21 00:33:19;;;;;;;1.10;1.10;;;19.40;63.20;;;;;;5027354;28;43865;-71
2022/04/21 00:35:47;;;;;;;1.13;1.13;;;19.50;62.70;;;;;;5009507;28;47079;-73
2022/04/21 00:38:15;;;;;;;1.30;1.30;;;19.50;62.40;;;;;;5027112;28;43389;-72
2022/04/21 00:40:43;;;;;;;1.13;1.13;;;19.50;62.40;;;;;;5027848;28;43810;-71
2022/04/21 00:43:11;;;;;;;1.00;1.00;;;19.40;62.50;;;;;;5027390;28;43572;-71
2022/04/21 00:45:39;;;;;;;1.20;1.20;;;19.30;62.70;;;;;;5027452;28;43592;-71
2022/04/21 00:48:08;;;;;;;0.90;0.90;;;19.20;62.90;;;;;;5027079;28;43961;-71
2022/04/21 00:50:37;;;;;;;1.00;1.00;;;19.10;63.10;;;;;;5009557;28;44054;-72
2022/04/21 00:53:05;;;;;;;1.20;1.20;;;19.10;63.30;;;;;;5027045;28;44080;-72
2022/04/21 00:55:33;;;;;;;1.23;1.23;;;19.00;63.50;;;;;;5027266;28;43924;-72
2022/04/21 00:58:02;;;;;;;1.00;1.00;;;19.00;63.70;;;;;;5026536;28;44015;-71
2022/04/21 01:00:30;;;;;;;1.10;1.10;;;19.00;64.20;;;;;;5027785;28;43978;-73
2022/04/21 01:02:58;;;;;;;1.10;1.10;;;19.10;64.10;;;;;;5027432;28;43858;-73
2022/04/21 01:05:30;;;;;;;1.20;1.20;;;19.20;63.60;;;;;;5028239;28;44057;-73
2022/04/21 01:08:00;;;;;;;1.07;1.07;;;19.30;63.20;;;;;;5027149;28;44018;-73
2022/04/21 01:10:28;;;;;;;1.20;1.20;;;19.30;63.00;;;;;;5009198;28;43930;-73
2022/04/21 01:12:56;;;;;;;1.17;1.17;;;19.20;63.00;;;;;;5027806;28;43985;-73
2022/04/21 01:15:24;;;;;;;1.20;1.20;;;19.10;63.10;;;;;;5026785;28;43967;-73
2022/04/21 01:17:52;;;;;;;1.10;1.10;;;19.10;63.30;;;;;;5008355;28;45555;-72
2022/04/21 01:20:22;;;;;;;1.03;1.03;;;19.00;63.40;;;;;;5026695;28;44080;-73
2022/04/21 01:22:50;;;;;;;1.10;1.10;;;19.00;63.60;;;;;;5027397;28;44001;-74
2022/04/21 01:25:19;;;;;;;1.10;1.10;;;18.90;63.70;;;;;;5008326;28;46109;-72
2022/04/21 01:27:47;;;;;;;0.90;0.90;;;18.90;63.70;;;;;;5026902;28;43790;-73
2022/04/21 01:30:15;;;;;;;1.20;1.20;;;18.90;63.80;;;;;;5026538;28;43980;-73
2022/04/21 01:32:44;;;;;;;1.00;1.00;;;18.90;63.90;;;;;;5026890;28;43518;-73
2022/04/21 01:35:12;;;;;;;1.00;1.00;;;18.90;64.30;;;;;;5026065;28;45147;-73
2022/04/21 01:43:12;;;;;;;1.00;1.00;;;19.40;63.30;;;;;;5008652;28;44160;-73
2022/04/21 01:45:41;;;;;;;1.10;1.10;;;19.60;62.50;;;;;;5026990;28;43942;-73
2022/04/21 01:48:09;;;;;;;1.10;1.10;;;19.60;62.30;;;;;;5025855;28;43891;-72
2022/04/21 01:50:37;;;;;;;1.20;1.20;;;19.60;62.20;;;;;;5026577;28;43961;-74
2022/04/21 01:53:07;;;;;;;1.17;1.17;;;19.50;62.20;;;;;;5026448;28;44042;-72
2022/04/21 01:55:34;;;;;;;1.10;1.10;;;19.40;62.40;;;;;;5026317;28;43969;-73
2022/04/21 01:58:02;;;;;;;1.10;1.10;;;19.30;62.60;;;;;;5026096;28;43402;-72
2022/04/21 02:00:30;;;;;;;1.00;1.00;;;19.20;62.90;;;;;;5026643;28;43950;-73
2022/04/21 02:02:58;;;;;;;1.20;1.20;;;19.10;63.00;;;;;;5026465;28;44009;-74
2022/04/21 02:05:26;;;;;;;1.10;1.10;;;19.10;63.30;;;;;;5026425;28;43988;-73
2022/04/21 02:07:54;;;;;;;1.00;1.00;;;19.00;63.90;;;;;;5008250;28;45128;-73
2022/04/21 02:10:24;;;;;;;1.00;1.00;;;19.10;64.00;;;;;;5026404;28;43409;-73
2022/04/21 02:12:52;;;;;;;1.00;1.00;;;19.20;63.70;;;;;;5008601;28;43572;-73
2022/04/21 02:15:19;;;;;;;1.00;1.00;;;19.30;63.20;;;;;;5007806;28;46201;-73
2022/04/21 02:17:47;;;;;;;1.10;1.10;;;19.30;62.90;;;;;;5018790;28;44846;-72
2022/04/21 02:20:16;;;;;;;1.00;1.00;;;19.30;63.00;;;;;;5025709;28;44020;-72
2022/04/21 02:22:44;;;;;;;1.00;1.00;;;19.20;63.00;;;;;;5024701;28;44005;-72
2022/04/21 02:25:12;;;;;;;1.10;1.10;;;19.10;63.20;;;;;;5025750;28;44103;-74
2022/04/21 02:27:42;;;;;;;1.00;1.00;;;19.10;63.40;;;;;;5025649;28;44054;-73
2022/04/21 02:30:12;;;;;;;1.00;1.00;;;19.00;63.50;;;;;;5025545;28;44035;-73
2022/04/21 02:32:40;;;;;;;1.00;1.00;;;18.90;63.60;;;;;;5026455;28;43958;-73
2022/04/21 02:35:09;;;;;;;1.13;1.13;;;18.90;63.70;;;;;;5025346;28;44063;-74
2022/04/21 02:37:37;;;;;;;1.10;1.10;;;18.90;63.90;;;;;;5025998;28;43375;-73
2022/04/21 02:40:06;;;;;;;1.13;1.13;;;18.90;64.00;;;;;;5025495;28;44026;-73
2022/04/21 02:42:34;;;;;;;0.97;0.97;;;18.90;64.40;;;;;;5025943;28;43933;-74
2022/04/21 02:45:05;;;;;;;1.10;1.10;;;19.00;64.20;;;;;;5025109;28;43953;-72
2022/04/21 02:47:32;;;;;;;1.10;1.10;;;19.20;63.90;;;;;;5025073;28;43941;-72
2022/04/21 02:50:00;;;;;;;1.10;1.10;;;19.40;63.40;;;;;;5025533;28;43385;-72
2022/04/21 02:52:28;;;;;;;1.13;1.13;;;19.50;62.70;;;;;;5026320;28;43453;-73
2022/04/21 02:57:43;;;;;;;0.93;0.93;;;19.50;62.50;;;;;;5025676;28;43946;-73
2022/04/21 03:00:13;;;;;;;0.93;0.93;;;19.30;62.50;;;;;;5025274;28;43949;-73
2022/04/21 03:02:41;;;;;;;0.90;0.90;;;19.30;62.80;;;;;;5025885;28;44022;-72
2022/04/21 03:05:11;;;;;;;1.00;1.00;;;19.20;63.00;;;;;;5025316;28;43851;-73
2022/04/21 03:07:39;;;;;;;1.20;1.20;;;19.10;63.20;;;;;;5025504;28;44029;-72
2022/04/21 03:10:08;;;;;;;0.90;0.90;;;19.00;63.30;;;;;;5024869;28;43963;-73
2022/04/21 03:12:35;;;;;;;1.17;1.17;;;19.00;63.50;;;;;;5026192;28;43324;-72
2022/04/21 03:15:04;;;;;;;1.20;1.20;;;18.90;63.90;;;;;;5022903;28;45971;-73
2022/04/21 03:17:33;;;;;;;1.10;1.10;;;19.00;64.20;;;;;;5025177;28;43866;-72
2022/04/21 03:20:01;;;;;;;1.10;1.10;;;19.10;64.10;;;;;;5018529;28;43965;-73
2022/04/21 03:25:15;;;;;;;1.10;1.10;;;19.30;63.20;;;;;;5020769;28;44834;-73
2022/04/21 03:27:46;;;;;;;1.10;1.10;;;19.20;63.00;;;;;;5025612;28;43953;-73
2022/04/21 03:30:14;;;;;;;1.10;1.10;;;19.20;63.20;;;;;;5025081;28;43995;-72
2022/04/21 03:32:44;;;;;;;1.20;1.20;;;19.10;63.30;;;;;;5025319;28;43755;-73
2022/04/21 03:35:12;;;;;;;1.10;1.10;;;19.00;63.50;;;;;;5024586;28;43995;-74
2022/04/21 03:37:39;;;;;;;1.10;1.10;;;18.90;63.60;;;;;;5025243;28;43906;-73
2022/04/21 03:40:08;;;;;;;1.00;1.00;;;18.90;63.90;;;;;;5006944;28;43348;-74
2022/04/21 03:42:37;;;;;;;1.20;1.20;;;18.90;64.00;;;;;;5025853;28;44281;-73
2022/04/21 03:45:06;;;;;;;1.13;1.13;;;18.80;64.00;;;;;;5024751;28;44049;-73
2022/04/21 03:47:34;;;;;;;1.50;1.50;;;18.80;64.30;;;;;;5025185;28;43946;-73
2022/04/21 03:50:04;;;;;;;1.53;1.43;;;18.80;64.50;;;;;;5025212;28;43994;-72
2022/04/21 03:52:32;;;;;;;1.50;1.50;;;18.90;64.70;;;;;;5007460;28;44215;-73
2022/04/21 03:55:00;;;;;;;1.60;1.50;;;19.00;64.40;;;;;;5024701;28;44063;-72
2022/04/21 03:57:28;;;;;;;2.43;2.10;;;19.20;63.90;;;;;;5025186;28;43993;-73
2022/04/21 03:59:56;;;;;;;5.33;2.53;;;19.40;63.30;;;;;;5027482;28;43820;-72
2022/04/21 04:02:24;;;;;;;6.70;2.90;;;19.50;62.70;;;;;;5028956;28;43950;-73
2022/04/21 04:04:52;;;;;;;5.43;3.23;;;19.50;62.50;;;;;;5028420;28;44004;-72
2022/04/21 04:12:58;;;;;;;9.03;3.50;;;19.20;62.70;;;;;;5028547;28;43711;-73
2022/04/21 04:15:26;;;;;;;6.93;3.73;;;19.20;63.10;;;;;;5009734;28;47315;-72
2022/04/21 04:17:53;;;;;;;7.30;3.93;;;19.10;63.30;;;;;;5027727;28;44616;-72
2022/04/21 04:20:21;;;;;;;10.23;5.00;;;19.00;63.40;;;;;;5027572;28;44016;-72
2022/04/21 04:22:51;;;;;;;9.90;4.70;;;19.00;63.60;;;;;;5028699;28;44041;-73
2022/04/21 04:25:18;;;;;;;10.67;4.33;;;18.90;63.90;;;;;;5027474;28;43887;-73
2022/04/21 04:27:46;;;;;;;10.77;4.50;;;18.90;64.20;;;;;;5027713;28;43921;-73
2022/04/21 04:30:15;;;;;;;9.57;4.80;;;19.10;64.10;;;;;;5027852;28;44021;-72
2022/04/21 04:32:43;;;;;;;8.17;4.80;;;19.20;63.60;;;;;;5028908;28;43391;-72
2022/04/21 04:35:11;;;;;;;11.33;4.93;;;19.40;63.00;;;;;;5027478;28;44009;-72
2022/04/21 04:37:39;;;;;;;8.20;4.77;;;19.50;62.70;;;;;;5028117;28;43377;-72
2022/04/21 04:40:12;;;;;;;11.40;4.83;;;19.40;62.40;;;;;;5027934;28;43954;-72
2022/04/21 04:42:39;;;;;;;9.40;4.90;;;19.30;62.50;;;;;;5028241;28;43768;-73
2022/04/21 04:48:10;;;;;;;11.53;4.90;;;19.20;62.90;;;;;;4985224;28;44264;-72
2022/04/21 04:50:38;;;;;;;11.37;5.30;;;19.10;63.20;;;;;;4986205;28;44080;-72
2022/04/21 04:53:09;;;;;;;13.40;5.70;;;19.00;63.40;;;;;;5006464;28;44030;-73
2022/04/21 04:55:39;;;;;;;11.63;5.03;;;19.00;63.60;;;;;;5027602;28;43962;-73
2022/04/21 04:58:07;;;;;;;8.13;4.80;;;18.90;63.70;;;;;;5009669;28;45968;-73
2022/04/21 05:00:35;;;;;;;13.93;5.40;;;18.90;64.20;;;;;;5009842;28;43919;-73
2022/04/21 05:03:02;;;;;;;11.73;5.47;;;19.00;64.20;;;;;;5027934;28;44120;-73
2022/04/21 05:05:30;;;;;;;12.00;5.80;;;19.10;63.90;;;;;;5027531;28;43942;-72
2022/04/21 05:07:59;;;;;;;9.93;5.13;;;19.30;63.30;;;;;;5027751;28;43431;-72
2022/04/21 05:10:28;;;;;;;10.17;5.07;;;19.40;62.90;;;;;;5009583;28;43920;-72
2022/04/21 05:13:01;;;;;;;10.73;5.20;;;19.50;62.70;;;;;;5028142;28;44024;-72
2022/04/21 05:15:29;;;;;;;8.70;4.97;;;19.40;62.50;;;;;;5009199;28;46023;-72
2022/04/21 05:17:58;;;;;;;8.30;5.00;;;19.30;62.60;;;;;;5027337;28;43873;-73
2022/04/21 05:20:27;;;;;;;7.23;4.93;;;19.20;62.80;;;;;;5027808;28;43875;-72
2022/04/21 05:22:57;;;;;;;7.73;4.60;;;19.10;63.00;;;;;;5027965;28;44002;-74
2022/04/21 05:25:30;;;;;;;7.43;4.87;;;19.00;63.20;;;;;;5027114;28;44023;-73
2022/04/21 05:27:58;;;;;;;9.50;4.87;;;19.00;63.50;;;;;;5027534;28;43971;-72
2022/04/21 05:33:16;;;;;;;9.00;4.80;;;18.90;63.90;;;;;;5027498;28;43933;-73
2022/04/21 05:35:46;;;;;;;8.13;4.97;;;18.90;64.30;;;;;;5027178;28;43961;-73
2022/04/21 05:38:16;;;;;;;9.77;5.37;;;19.00;64.20;;;;;;5009325;28;45102;-73
2022/04/21 05:40:45;;;;;;;9.87;4.80;;;19.10;63.70;;;;;;5027200;28;43915;-73
2022/04/21 05:43:13;;;;;;;8.63;4.83;;;19.20;63.30;;;;;;5027586;28;43906;-73
2022/04/21 05:45:43;;;;;;;7.63;5.13;;;19.10;63.10;;;;;;5009184;28;45389;-72
2022/04/21 05:48:12;;;;;;;6.57;4.20;;;19.10;63.20;;;;;;5026597;28;44069;-73
2022/04/21 05:50:40;;;;;;;7.13;4.27;;;19.00;63.30;;;;;;5009039;28;44001;-73
2022/04/21 05:53:08;;;;;;;6.33;4.37;;;18.90;63.50;;;;;;5026896;28;44209;-73
2022/04/21 05:55:37;;;;;;;7.73;4.30;;;18.90;63.70;;;;;;5027001;28;43854;-73
2022/04/21 05:58:04;;;;;;;5.60;4.10;;;18.80;63.80;;;;;;5026708;28;43945;-73
2022/04/21 06:00:32;;;;;;;6.80;4.50;;;18.80;63.90;;;;;;5009018;28;44075;-72
2022/04/21 06:03:02;;;;;;;5.77;4.40;;;18.80;64.10;;;;;;5027284;28;43939;-73
2022/04/21 06:05:30;;;;;;;8.40;4.80;;;18.80;64.10;;;;;;5008841;28;45331;-73
2022/04/21 06:07:58;;;;;;;6.80;4.70;;;18.70;64.40;;;;;;5026726;28;44030;-72
2022/04/21 06:10:26;;;;;;;7.43;4.57;;;18.80;64.60;;;;;;5027302;28;43943;-73
2022/04/21 06:12:55;;;;;;;5.73;4.20;;;19.00;64.30;;;;;;5009434;28;44037;-73
2022/04/21 06:15:25;;;;;;;7.97;4.40;;;19.20;63.80;;;;;;5026478;28;43953;-72
2022/04/21 06:17:53;;;;;;;6.67;4.37;;;19.30;63.20;;;;;;5026362;28;43997;-73
2022/04/21 06:20:22;;;;;;;5.53;4.10;;;19.40;62.70;;;;;;5009123;28;43970;-73
2022/04/21 06:22:50;;;;;;;7.07;4.27;;;19.40;62.60;;;;;;5026111;28;44040;-74
2022/04/21 06:25:18;;;;;;;7.03;4.40;;;19.30;62.50;;;;;;5026421;28;43921;-73
2022/04/21 06:27:46;;;;;;;6.33;3.93;;;19.20;62.60;;;;;;5026444;28;44078;-72
2022/04/21 06:30:14;;;;;;;4.20;3.80;;;19.10;62.90;;;;;;5026437;28;44018;-72
2022/04/21 06:32:43;;;;;;;5.27;3.67;;;19.10;63.10;;;;;;5026822;28;43575;-72
2022/04/21 06:35:10;;;;;;;5.47;3.80;;;19.00;63.30;;;;;;5026345;28;43938;-73
2022/04/21 06:37:40;;;;;;;6.67;4.70;;;18.90;63.40;;;;;;5026149;28;44016;-72
2022/04/21 06:40:09;;;;;;;4.30;3.83;;;18.90;63.70;;;;;;5008088;28;43879;-73
2022/04/21 06:42:37;;;;;;;5.40;4.07;;;18.90;64.20;;;;;;5026492;28;43890;-73
2022/04/21 06:48:03;;;;;;;4.90;3.83;;;19.10;63.70;;;;;;5020304;28;44403;-73
2022/04/21 06:50:32;;;;;;;4.53;3.60;;;19.20;63.30;;;;;;5027054;28;43885;-72
2022/04/21 06:53:01;;;;;;;4.07;3.70;;;19.10;63.00;;;;;;5009780;28;43878;-72
2022/04/21 06:55:29;;;;;;;5.37;3.80;;;19.10;63.20;;;;;;5026824;28;43926;-72
2022/04/21 06:57:57;;;;;;;4.17;3.70;;;19.00;63.30;;;;;;5026748;28;43985;-72
2022/04/21 07:00:27;;;;;;;4.10;3.60;;;18.90;63.40;;;;;;5026649;28;43946;-73
2022/04/21 07:02:57;;;;;;;4.07;3.47;;;18.90;63.70;;;;;;5027653;28;43963;-73
2022/04/21 07:05:26;;;;;;;4.30;3.90;;;18.90;63.80;;;;;;5026428;28;44854;-72
2022/04/21 07:07:53;;;;;;;4.50;3.63;;;18.80;63.80;;;;;;5026263;28;43402;-72
2022/04/21 07:10:23;;;;;;;5.33;4.23;;;18.80;64.00;;;;;;5026667;28;44027;-73
2022/04/21 07:12:51;;;;;;;3.77;3.43;;;18.80;64.00;;;;;;5027036;28;43902;-73
2022/04/21 07:15:19;;;;;;;4.27;3.83;;;18.80;64.40;;;;;;5007717;28;46168;-73
2022/04/21 07:17:47;;;;;;;4.30;3.50;;;18.90;64.40;;;;;;5026282;28;43397;-73
2022/04/21 07:20:15;;;;;;;3.97;3.63;;;19.10;64.00;;;;;;5026484;28;44016;-73
2022/04/21 07:22:43;;;;;;;5.13;3.50;;;19.20;63.40;;;;;;5008826;28;43972;-72
2022/04/21 07:25:11;;;;;;;3.83;3.30;;;19.40;62.90;;;;;;5026221;28;43829;-72
2022/04/21 07:27:43;;;;;;;4.33;3.63;;;19.40;62.60;;;;;;5026249;28;43431;-74
2022/04/21 07:30:12;;;;;;;4.37;3.90;;;19.40;62.70;;;;;;5026510;28;43967;-73
2022/04/21 07:32:40;;;;;;;4.00;3.60;;;19.30;62.70;;;;;;5026661;28;43969;-73
2022/04/21 07:35:09;;;;;;;3.50;3.23;;;19.20;62.80;;;;;;5028783;28;44034;-73
2022/04/21 07:37:38;;;;;;;4.07;3.10;;;19.10;63.00;;;;;;5011444;28;45793;-72
2022/04/21 07:40:08;;;;;;;3.80;3.50;;;19.00;63.20;;;;;;5029718;28;44006;-72
2022/04/21 07:42:36;;;;;;;3.33;3.03;;;19.00;63.50;;;;;;5030312;28;43381;-73
2022/04/21 07:45:07;;;;;;;3.80;3.40;;;18.90;63.70;;;;;;5011407;28;47443;-73
2022/04/21 07:47:35;;;;;;;3.70;3.40;;;18.90;63.80;;;;;;5029646;28;43892;-72
2022/04/21 07:50:04;;;;;;;3.10;2.90;;;18.90;64.30;;;;;;5029507;28;43993;-72
2022/04/21 07:55:18;;;;;;;3.67;3.37;;;19.10;63.90;;;;;;5029175;28;43820;-72
2022/04/21 07:57:47;;;;;;;3.33;3.07;;;19.10;63.30;;;;;;5029488;28;43940;-72
2022/04/21 08:00:17;;;;;;;3.60;3.30;;;19.10;63.20;;;;;;5029355;28;43856;-73
2022/04/21 08:02:46;;;;;;;3.63;3.30;;;19.00;63.30;;;;;;5029792;28;43366;-73
2022/04/21 08:05:14;;;;;;;3.17;2.93;;;19.00;63.50;;;;;;5029139;28;44931;-73
2022/04/21 08:07:44;;;;;;;3.20;2.90;;;18.90;63.60;;;;;;5029362;28;43984;-73
2022/04/21 08:10:18;;;;;;;3.37;3.17;;;18.90;63.80;;;;;;5029429;28;43952;-73
2022/04/21 08:12:47;;;;;;;3.30;3.07;;;18.80;63.90;;;;;;5029590;28;43827;-73
2022/04/21 08:15:22;;;;;;;3.73;3.43;;;18.80;64.10;;;;;;5028608;28;44065;-73
2022/04/21 08:17:50;;;;;;;3.10;2.90;;;18.70;64.10;;;;;;5028756;28;44093;-73
2022/04/21 08:20:20;;;;;;;3.33;3.13;;;18.70;64.10;;;;;;5029182;28;43360;-74
2022/04/21 08:22:48;;;;;;;2.93;2.73;;;18.70;64.50;;;;;;5029414;28;44012;-72
2022/04/21 08:34:16;;;;;;;3.17;2.97;;;19.40;63.00;;;;;;5011382;28;43424;-72
2022/04/21 08:36:49;;;;;;;2.97;2.77;;;19.40;62.60;;;;;;5028529;28;44814;-73
2022/04/21 08:39:17;;;;;;;3.50;3.17;;;19.40;62.60;;;;;;5028612;28;43950;-73
2022/04/21 08:41:48;;;;;;;3.30;3.00;;;19.30;62.60;;;;;;5028929;28;43905;-73
2022/04/21 08:44:20;;;;;;;3.37;2.80;;;19.20;62.80;;;;;;5029192;28;43527;-73
2022/04/21 08:46:49;;;;;;;2.80;2.63;;;19.10;63.10;;;;;;5027328;28;43988;-72
2022/04/21 08:49:19;;;;;;;2.77;2.57;;;19.00;63.30;;;;;;5028532;28;43675;-72
2022/04/21 08:51:47;;;;;;;2.60;2.50;;;19.00;63.60;;;;;;5028673;28;44016;-72
2022/04/21 08:54:14;;;;;;;3.23;3.00;;;18.90;63.80;;;;;;5010978;28;43845;-72
2022/04/21 08:56:42;;;;;;;2.77;2.67;;;18.80;63.90;;;;;;5028411;28;45131;-73
2022/04/21 08:59:10;;;;;;;3.03;2.83;;;18.80;64.40;;;;;;5028485;28;44000;-73
2022/04/21 09:01:40;;;;;;;2.63;2.53;;;18.90;64.40;;;;;;5028285;28;43900;-73
2022/04/21 09:04:09;;;;;;;2.90;2.70;;;19.00;64.00;;;;;;5028932;28;43898;-72
2022/04/21 09:06:38;;;;;;;2.87;2.67;;;19.10;63.50;;;;;;5028028;28;44995;-72
2022/04/21 09:09:16;;;;;;;2.70;2.50;;;19.10;63.30;;;;;;5010244;28;44771;-73
2022/04/21 09:11:50;;;;;;;2.50;2.40;;;19.00;63.20;;;;;;5010292;28;43886;-72
2022/04/21 09:14:20;;;;;;;3.00;2.80;;;19.00;63.50;;;;;;5028780;28;43961;-73
2022/04/21 09:16:48;;;;;;;2.70;2.50;;;18.90;63.70;;;;;;5027403;28;44897;-73
2022/04/21 09:19:20;;;;;;;2.70;2.60;;;18.80;63.80;;;;;;5028041;28;43898;-73
2022/04/21 09:21:50;;;;;;;2.63;2.53;;;18.80;64.00;;;;;;5028054;28;43991;-72
2022/04/21 09:24:21;;;;;;;2.90;2.67;;;18.80;64.10;;;;;;5028542;28;44011;-73
2022/04/21 09:26:50;;;;;;;2.80;2.60;;;18.70;64.10;;;;;;5027960;28;43910;-73
2022/04/21 09:29:23;;;;;;;2.50;2.40;;;18.70;64.20;;;;;;5009978;28;45094;-73
2022/04/21 09:31:55;;;;;;;3.13;2.77;;;18.70;64.40;;;;;;5027938;28;43364;-73
2022/04/21 09:34:25;;;;;;;2.63;2.53;;;18.70;64.60;;;;;;5028550;28;43965;-73
2022/04/21 09:36:55;;;;;;;2.70;2.60;;;18.80;64.50;;;;;;5027675;28;43954;-73
2022/04/21 09:39:23;;;;;;;2.30;2.20;;;19.00;64.10;;;;;;5019622;28;44675;-72
2022/04/21 09:41:53;;;;;;;2.27;2.17;;;19.20;63.60;;;;;;5019922;28;44244;-73
2022/04/21 09:47:07;;;;;;;2.60;2.50;;;19.40;62.70;;;;;;5023810;28;43953;-72
2022/04/21 09:49:37;;;;;;;2.30;2.20;;;19.30;62.50;;;;;;5027570;28;43389;-73
2022/04/21 09:52:05;;;;;;;2.80;2.60;;;19.20;62.60;;;;;;5027871;28;44092;-74
2022/04/21 09:54:33;;;;;;;2.47;2.30;;;19.20;63.00;;;;;;5027988;28;43973;-73
2022/04/21 09:57:02;;;;;;;2.40;2.30;;;19.10;63.30;;;;;;5027202;28;43915;-73
2022/04/21 09:59:35;;;;;;;2.47;2.37;;;19.00;63.50;;;;;;5027475;28;44026;-72
2022/04/21 10:02:03;;;;;;;2.20;2.10;;;18.90;63.60;;;;;;5027464;28;44439;-72
2022/04/21 10:04:31;;;;;;;2.40;2.30;;;18.90;63.80;;;;;;5010122;28;44029;-72
2022/04/21 10:07:01;;;;;;;2.50;2.30;;;18.80;63.80;;;;;;5027529;28;44784;-72
2022/04/21 10:09:29;;;;;;;2.43;2.33;;;18.80;64.30;;;;;;5009435;28;43968;-72
2022/04/21 10:11:59;;;;;;;2.33;2.23;;;18.90;64.20;;;;;;5009453;28;44024;-72
2022/04/21 10:14:27;;;;;;;2.37;2.27;;;19.00;63.70;;;;;;5027737;28;43918;-73
2022/04/21 10:16:55;;;;;;;2.50;2.40;;;19.10;63.30;;;;;;5026963;28;45017;-73
2022/04/21 10:19:25;;;;;;;4.00;2.57;;;19.10;63.00;;;;;;5027227;28;44044;-72
2022/04/21 10:21:54;;;;;;;1.90;1.90;;;19.00;63.00;;;;;;5009202;28;44022;-73
2022/04/21 10:24:23;;;;;;;2.53;2.33;;;19.00;63.00;;;;;;5027070;28;44140;-73
2022/04/21 10:26:51;;;;;;;2.27;2.17;;;18.90;63.00;;;;;;5027197;28;43906;-72
2022/04/21 10:29:22;;;;;;;2.20;2.10;;;18.80;62.30;;;;;;5026993;28;43942;-73
2022/04/21 10:31:57;;;;;;;2.47;2.37;;;18.80;63.20;;;;;;5027105;28;43916;-71
2022/04/21 10:34:32;;;;;;;2.23;2.13;;;18.80;63.30;;;;;;5020870;28;43899;-72
2022/04/21 10:37:11;;;;;;;2.03;1.93;;;18.70;63.50;;;;;;5021164;28;43921;-73
2022/04/21 10:39:41;;;;;;;2.47;2.30;;;18.70;63.70;;;;;;5026864;28;44175;-73
2022/04/21 10:42:18;;;;;;;2.50;2.00;;;18.70;63.70;;;;;;5026808;28;43980;-73
2022/04/21 10:44:47;;;;;;;2.20;2.10;;;18.70;63.90;;;;;;5026953;28;44077;-72
2022/04/21 10:47:36;;;;;;;6.23;2.40;;;18.80;64.00;;;;;;5026366;28;44981;-72
2022/04/21 10:50:15;;;;;;;2.30;2.20;;;19.00;63.60;;;;;;5019032;28;43979;-73
2022/04/21 10:58:50;;;;;;;2.30;2.30;;;19.40;62.70;;;;;;5008409;28;45794;-72
2022/04/21 11:01:23;;;;;;;2.27;2.17;;;19.30;62.30;;;;;;5026698;28;43941;-73
2022/04/21 11:04:17;;;;;;;1.90;1.90;;;19.20;62.70;;;;;;5026753;28;43763;-73
2022/04/21 11:06:54;;;;;;;2.20;2.10;;;19.10;63.10;;;;;;5008910;28;43928;-73
2022/04/21 11:09:41;;;;;;;1.90;1.80;;;19.00;63.20;;;;;;5025837;28;44609;-72
2022/04/21 11:12:49;;;;;;;2.47;2.37;;;18.90;63.40;;;;;;5008342;28;43420;-73
2022/04/21 11:15:40;;;;;;;2.00;1.90;;;18.90;63.70;;;;;;5008209;28;43951;-72
2022/04/21 11:18:09;;;;;;;2.00;1.90;;;18.80;63.80;;;;;;5019914;28;43905;-73
2022/04/21 11:20:38;;;;;;;1.77;1.67;;;18.90;64.00;;;;;;5008246;28;47021;-73
2022/04/21 11:23:08;;;;;;;2.20;2.10;;;19.00;63.80;;;;;;5026182;28;43898;-73
2022/04/21 11:25:36;;;;;;;1.83;1.77;;;19.10;63.60;;;;;;5026606;28;43918;-72
2022/04/21 11:28:05;;;;;;;8.20;2.00;;;19.10;63.40;;;;;;5008787;28;43988;-73
2022/04/21 11:30:33;;;;;;;1.70;1.70;;;19.10;62.70;;;;;;5026331;28;44742;-72
2022/04/21 11:33:01;;;;;;;2.10;2.00;;;19.10;62.90;;;;;;5026348;28;43899;-73
2022/04/21 11:35:30;;;;;;;1.93;1.90;;;19.00;63.10;;;;;;5026517;28;44031;-73
2022/04/21 11:37:59;;;;;;;2.30;2.07;;;19.00;63.40;;;;;;5026887;28;43842;-73
2022/04/21 11:40:32;;;;;;;2.20;2.03;;;18.90;63.50;;;;;;5026252;28;45087;-73
2022/04/21 11:43:03;;;;;;;1.90;1.90;;;18.90;63.70;;;;;;5026383;28;43383;-72
2022/04/21 11:45:36;;;;;;;1.77;1.67;;;18.90;63.70;;;;;;5008259;28;43952;-74
2022/04/21 11:48:11;;;;;;;2.53;1.90;;;18.90;63.70;;;;;;5026328;28;44019;-73
2022/04/21 11:50:38;;;;;;;6.13;2.10;;;18.80;63.70;;;;;;5026291;28;44003;-73
2022/04/21 11:53:12;;;;;;;4.77;2.17;;;18.80;63.80;;;;;;5025945;28;43455;-73
2022/04/21 11:55:40;;;;;;;5.17;2.20;;;18.90;63.90;;;;;;5026270;28;43945;-72
2022/04/21 11:58:12;;;;;;;3.23;2.27;;;19.10;63.50;;;;;;5026443;28;44081;-73
2022/04/21 12:06:32;;;;;;;2.43;1.90;;;19.50;63.10;;;;;;5026183;28;43984;-74
2022/04/21 12:09:01;;;;;;;2.07;1.83;;;19.40;62.30;;;;;;5020685;28;43413;-72
2022/04/21 12:11:29;;;;;;;2.60;1.80;;;19.30;62.50;;;;;;5026024;28;43980;-72
2022/04/21 12:13:56;;;;;;;2.57;1.87;;;19.30;63.00;;;;;;5025710;28;43950;-73
2022/04/21 12:16:42;;;;;;;2.30;1.83;;;19.20;64.00;;;;;;5025377;28;43973;-73
2022/04/21 12:19:15;;;;;;;3.83;1.90;;;19.10;63.50;;;;;;5026406;28;44173;-72
2022/04/21 12:21:44;;;;;;;3.03;1.60;;;19.00;63.80;;;;;;5028113;28;43608;-73
2022/04/21 12:24:15;;;;;;;1.80;1.80;;;19.00;64.00;;;;;;5010862;28;46217;-72
2022/04/21 12:26:50;;;;;;;3.23;1.63;;;18.90;64.10;;;;;;5029170;28;43957;-72
2022/04/21 12:29:18;;;;;;;1.67;1.57;;;18.90;64.30;;;;;;5011192;28;43801;-73
2022/04/21 12:31:52;;;;;;;2.80;1.77;;;19.10;64.20;;;;;;5010730;28;46966;-73
2022/04/21 12:34:26;;;;;;;2.10;1.90;;;19.20;63.70;;;;;;5028778;28;43903;-73
2022/04/21 12:36:56;;;;;;;2.10;2.00;;;19.20;63.50;;;;;;5028980;28;43386;-73
2022/04/21 12:39:24;;;;;;;1.60;1.53;;;19.20;63.60;;;;;;5023446;28;44068;-72
2022/04/21 12:42:12;;;;;;;2.10;2.00;;;19.10;63.70;;;;;;5010748;28;46974;-73
2022/04/21 12:44:42;;;;;;;1.60;1.50;;;19.00;63.90;;;;;;5028610;28;43983;-72
2022/04/21 12:47:17;;;;;;;1.60;1.50;;;19.00;64.10;;;;;;5028832;28;43469;-72
2022/04/21 12:49:52;;;;;;;1.60;1.60;;;18.90;64.30;;;;;;5010930;28;44096;-71
2022/04/21 12:52:37;;;;;;;1.87;1.77;;;18.90;64.40;;;;;;5010042;28;45693;-73
2022/04/21 12:55:09;;;;;;;1.50;1.50;;;18.90;64.50;;;;;;5028551;28;43977;-73
2022/04/21 12:57:39;;;;;;;2.03;1.93;;;18.80;64.60;;;;;;5028664;28;43808;-72
2022/04/21 13:00:09;;;;;;;1.70;1.60;;;18.80;64.70;;;;;;5028659;28;43482;-73
2022/04/21 13:02:38;;;;;;;1.80;1.80;;;18.80;65.00;;;;;;5028182;28;44928;-73
2022/04/21 13:05:07;;;;;;;1.60;1.50;;;18.90;64.90;;;;;;5028373;28;44069;-73
2022/04/21 13:07:34;;;;;;;1.63;1.63;;;19.10;64.50;;;;;;5028313;28;43437;-72
2022/04/21 13:10:02;;;;;;;1.60;1.50;;;19.20;64.00;;;;;;5028692;28;43953;-73
2022/04/21 13:12:33;;;;;;;1.67;1.57;;;19.40;63.60;;;;;;5028684;28;43935;-73
2022/04/21 13:15:01;;;;;;;1.60;1.50;;;19.40;63.20;;;;;;5028157;28;44236;-73
2022/04/21 13:17:29;;;;;;;1.70;1.60;;;19.40;63.10;;;;;;5028107;28;43417;-73
2022/04/21 13:19:58;;;;;;;2.00;1.90;;;19.30;63.20;;;;;;5010644;28;43514;-73
2022/04/21 13:22:25;;;;;;;1.80;1.70;;;19.30;63.60;;;;;;5010281;28;45994;-73
2022/04/21 13:24:53;;;;;;;1.97;1.70;;;19.20;63.80;;;;;;5028228;28;43429;-72
2022/04/21 13:27:23;;;;;;;1.80;1.70;;;19.10;63.90;;;;;;5010181;28;43414;-73
2022/04/21 13:29:51;;;;;;;1.70;1.60;;;19.00;63.80;;;;;;5028386;28;43993;-72
2022/04/21 13:35:08;;;;;;;3.53;2.10;;;18.90;63.70;;;;;;5027897;28;44046;-72
2022/04/21 13:37:36;;;;;;;2.30;1.90;;;18.90;63.30;;;;;;5029028;28;43894;-72
2022/04/21 13:40:05;;;;;;;1.97;1.77;;;18.90;63.40;;;;;;5010559;28;44059;-73
2022/04/21 13:42:33;;;;;;;4.80;1.80;;;18.80;63.50;;;;;;5027901;28;45244;-73
2022/04/21 13:45:01;;;;;;;4.07;1.90;;;18.80;63.60;;;;;;5027979;28;44044;-72
2022/04/21 13:47:49;;;;;;;2.43;2.00;;;18.80;63.70;;;;;;5027585;28;44070;-72
2022/04/21 13:50:18;;;;;;;2.27;2.17;;;18.80;63.60;;;;;;5010109;28;44092;-73
2022/04/21 13:52:47;;;;;;;2.60;2.40;;;18.80;61.70;;;;;;5027072;28;44040;-73